Time;durP1;ratioP1;P1;durP2;ratioP2;P2;SDS_P1;SDS_P2;PMS_P1;PMS_P2;Temp;Humidity;BMP_temperature;BMP_pressure;BME280_temperature;BME280_humidity;BME280_pressure;Samples;Min_cycle;Max_cycle;Signal;HPM_P1;HPM_P2
2022/03/24 00:01:07;;;;;;;25.27;16.50;;;;;;;;;;5074586;28;20821;-58
2022/03/24 00:03:33;;;;;;;26.10;16.87;;;;;;;;;;5074775;28;20433;-58
2022/03/24 00:05:59;;;;;;;20.67;16.40;;;;;;;;;;5074590;28;20517;-58
2022/03/24 00:08:25;;;;;;;27.83;17.30;;;;;;;;;;5075111;28;20249;-58
2022/03/24 00:10:51;;;;;;;21.47;16.30;;;;;;;;;;5074142;28;20713;-59
2022/03/24 00:13:19;;;;;;;20.70;16.17;;;;;;;;;;5074399;28;20243;-59
2022/03/24 00:15:45;;;;;;;23.20;17.33;;;;;;;;;;5072659;28;20269;-58
2022/03/24 00:18:12;;;;;;;23.33;17.07;;;;;;;;;;5074520;28;20465;-54
2022/03/24 00:20:38;;;;;;;26.43;17.30;;;;;;;;;;5074243;28;20426;-54
2022/03/24 00:23:04;;;;;;;27.10;17.07;;;;;;;;;;5074318;28;20437;-55
2022/03/24 00:25:30;;;;;;;22.63;16.73;;;;;;;;;;5074391;28;20227;-54
2022/03/24 00:27:56;;;;;;;23.87;17.53;;;;;;;;;;5074419;28;20492;-56
2022/03/24 00:30:24;;;;;;;22.07;16.40;;;;;;;;;;5074280;28;20450;-56
2022/03/24 00:32:50;;;;;;;26.47;16.67;;;;;;;;;;5074038;28;20813;-56
2022/03/24 00:35:16;;;;;;;24.67;17.93;;;;;;;;;;5074346;28;20469;-56
2022/03/24 00:37:42;;;;;;;23.20;17.50;;;;;;;;;;5074073;28;20225;-56
2022/03/24 00:40:08;;;;;;;23.63;17.30;;;;;;;;;;5073989;28;20437;-56
2022/03/24 00:42:36;;;;;;;22.90;17.93;;;;;;;;;;5074095;28;20434;-56
2022/03/24 00:45:02;;;;;;;23.20;18.20;;;;;;;;;;5073806;28;20817;-56
2022/03/24 00:47:30;;;;;;;26.57;17.97;;;;;;;;;;5074202;28;20850;-56
2022/03/24 00:49:56;;;;;;;23.87;17.87;;;;;;;;;;5074015;28;20477;-56
2022/03/24 00:52:22;;;;;;;25.70;18.40;;;;;;;;;;5074148;28;20765;-56
2022/03/24 00:54:48;;;;;;;26.10;18.07;;;;;;;;;;5073951;28;20795;-56
2022/03/24 00:57:14;;;;;;;27.40;18.53;;;;;;;;;;5073967;28;20230;-56
2022/03/24 00:59:40;;;;;;;26.00;19.37;;;;;;;;;;5073837;28;20253;-56
2022/03/24 01:02:09;;;;;;;27.63;18.60;;;;;;;;;;5073726;28;20245;-56
2022/03/24 01:04:37;;;;;;;33.43;19.57;;;;;;;;;;5073753;28;20508;-56
2022/03/24 01:07:03;;;;;;;25.70;18.20;;;;;;;;;;5073595;28;20987;-57
2022/03/24 01:09:29;;;;;;;27.33;18.50;;;;;;;;;;5073730;28;20440;-57
2022/03/24 01:11:56;;;;;;;25.60;19.90;;;;;;;;;;5073514;28;20533;-57
2022/03/24 01:14:22;;;;;;;24.17;19.33;;;;;;;;;;5073524;28;20207;-57
2022/03/24 01:16:50;;;;;;;25.20;18.93;;;;;;;;;;5073349;28;20486;-57
2022/03/24 01:19:16;;;;;;;26.17;19.43;;;;;;;;;;5073554;28;20988;-57
2022/03/24 01:21:43;;;;;;;24.37;19.20;;;;;;;;;;5073480;28;20951;-57
2022/03/24 01:24:10;;;;;;;24.07;18.13;;;;;;;;;;5073098;28;20477;-57
2022/03/24 01:26:36;;;;;;;24.73;18.47;;;;;;;;;;5073424;28;20492;-57
2022/03/24 01:29:02;;;;;;;32.17;18.83;;;;;;;;;;5073375;28;20484;-57
2022/03/24 01:31:28;;;;;;;29.60;19.53;;;;;;;;;;5073399;28;20453;-57
2022/03/24 01:33:54;;;;;;;29.80;19.90;;;;;;;;;;5073130;28;20438;-57
2022/03/24 01:36:20;;;;;;;30.77;19.60;;;;;;;;;;5073025;28;20590;-57
2022/03/24 01:38:48;;;;;;;27.50;20.07;;;;;;;;;;5073244;28;20441;-57
2022/03/24 01:41:13;;;;;;;28.27;20.27;;;;;;;;;;5073092;28;20204;-57
2022/03/24 01:43:40;;;;;;;27.70;19.97;;;;;;;;;;5072928;28;20497;-57
2022/03/24 01:46:07;;;;;;;25.13;18.30;;;;;;;;;;5072855;28;20196;-57
2022/03/24 01:48:33;;;;;;;33.50;20.40;;;;;;;;;;5072226;28;20442;-57
2022/03/24 01:50:59;;;;;;;26.20;19.73;;;;;;;;;;5072894;28;20851;-57
2022/03/24 01:53:25;;;;;;;24.47;18.33;;;;;;;;;;5072819;28;20225;-57
2022/03/24 01:55:54;;;;;;;27.53;19.93;;;;;;;;;;5072645;28;20991;-56
2022/03/24 01:58:22;;;;;;;28.47;19.57;;;;;;;;;;5072521;28;20442;-58
2022/03/24 02:00:48;;;;;;;25.57;19.00;;;;;;;;;;5072651;28;20833;-57
2022/03/24 02:03:14;;;;;;;25.20;19.17;;;;;;;;;;5072854;28;20457;-57
2022/03/24 02:05:42;;;;;;;27.07;18.93;;;;;;;;;;5072581;28;20196;-57
2022/03/24 02:08:08;;;;;;;27.87;19.47;;;;;;;;;;5072682;28;20741;-57
2022/03/24 02:10:37;;;;;;;28.07;19.70;;;;;;;;;;5072551;28;20864;-57
2022/03/24 02:13:06;;;;;;;26.77;18.90;;;;;;;;;;5072341;28;20436;-57
2022/03/24 02:15:33;;;;;;;26.03;19.40;;;;;;;;;;5072142;28;20478;-57
2022/03/24 02:17:59;;;;;;;31.53;20.03;;;;;;;;;;5072255;28;20953;-57
2022/03/24 02:20:28;;;;;;;26.47;18.87;;;;;;;;;;5072274;28;20434;-57
2022/03/24 02:22:55;;;;;;;29.93;18.70;;;;;;;;;;5072220;28;20204;-57
2022/03/24 02:25:23;;;;;;;25.70;19.50;;;;;;;;;;5072175;28;20527;-57
2022/03/24 02:27:55;;;;;;;26.37;19.33;;;;;;;;;;5072146;28;20442;-57
2022/03/24 02:30:21;;;;;;;27.27;19.70;;;;;;;;;;5072041;28;20462;-57
2022/03/24 02:32:47;;;;;;;29.87;20.37;;;;;;;;;;5072071;28;20947;-57
2022/03/24 02:35:13;;;;;;;28.97;20.13;;;;;;;;;;5071998;28;20717;-57
2022/03/24 02:37:40;;;;;;;27.87;20.00;;;;;;;;;;5071941;28;20998;-57
2022/03/24 02:40:09;;;;;;;32.90;20.83;;;;;;;;;;5071867;28;20533;-57
2022/03/24 02:42:38;;;;;;;26.17;19.97;;;;;;;;;;5071962;28;20533;-57
2022/03/24 02:45:06;;;;;;;31.70;20.30;;;;;;;;;;5071748;28;20430;-57
2022/03/24 02:47:32;;;;;;;30.90;21.37;;;;;;;;;;5072018;28;20491;-57
2022/03/24 02:49:58;;;;;;;27.93;19.73;;;;;;;;;;5071926;28;20774;-57
2022/03/24 02:52:24;;;;;;;23.73;18.87;;;;;;;;;;5071714;28;20803;-57
2022/03/24 02:54:50;;;;;;;28.63;20.57;;;;;;;;;;5071802;28;20434;-57
2022/03/24 02:57:18;;;;;;;27.33;20.00;;;;;;;;;;5071656;28;20470;-57
2022/03/24 02:59:44;;;;;;;28.40;20.53;;;;;;;;;;5071776;28;20889;-57
2022/03/24 03:02:14;;;;;;;27.00;19.47;;;;;;;;;;5071552;28;20495;-57
2022/03/24 03:04:40;;;;;;;26.30;19.73;;;;;;;;;;5071508;28;20470;-57
2022/03/24 03:07:06;;;;;;;27.23;19.50;;;;;;;;;;5071620;28;20803;-57
2022/03/24 03:09:34;;;;;;;27.07;19.70;;;;;;;;;;5071638;28;20923;-57
2022/03/24 03:12:00;;;;;;;27.70;20.30;;;;;;;;;;5071634;28;20434;-57
2022/03/24 03:14:29;;;;;;;27.83;19.57;;;;;;;;;;5071760;28;20426;-57
2022/03/24 03:16:55;;;;;;;26.20;20.30;;;;;;;;;;5071443;28;21018;-56
2022/03/24 03:19:22;;;;;;;27.17;19.80;;;;;;;;;;5071428;28;20483;-57
2022/03/24 03:21:49;;;;;;;28.07;19.97;;;;;;;;;;5071495;28;20438;-57
2022/03/24 03:24:15;;;;;;;26.27;19.63;;;;;;;;;;5071180;28;20477;-57
2022/03/24 03:26:42;;;;;;;28.93;21.37;;;;;;;;;;5071475;28;20430;-57
2022/03/24 03:29:09;;;;;;;28.80;20.30;;;;;;;;;;5071456;28;20518;-57
2022/03/24 03:31:37;;;;;;;27.67;19.73;;;;;;;;;;5071402;28;20438;-57
2022/03/24 03:34:03;;;;;;;28.50;19.67;;;;;;;;;;5071235;28;20457;-57
2022/03/24 03:36:30;;;;;;;26.50;19.47;;;;;;;;;;5071416;28;20473;-57
2022/03/24 03:38:57;;;;;;;28.80;20.60;;;;;;;;;;5071324;28;20495;-57
2022/03/24 03:41:23;;;;;;;26.60;19.00;;;;;;;;;;5071243;28;20686;-57
2022/03/24 03:43:49;;;;;;;28.87;19.67;;;;;;;;;;5071124;28;20944;-57
2022/03/24 03:46:16;;;;;;;27.37;19.17;;;;;;;;;;5071109;28;20203;-55
2022/03/24 03:48:43;;;;;;;27.13;19.20;;;;;;;;;;5071217;28;20422;-57
2022/03/24 03:51:10;;;;;;;27.37;19.00;;;;;;;;;;5071033;28;20545;-57
2022/03/24 03:53:36;;;;;;;26.57;20.30;;;;;;;;;;5071192;28;20434;-57
2022/03/24 03:56:03;;;;;;;28.30;19.60;;;;;;;;;;5070970;28;20476;-57
2022/03/24 03:58:29;;;;;;;28.93;20.43;;;;;;;;;;5071333;28;20438;-56
2022/03/24 04:00:58;;;;;;;31.07;19.90;;;;;;;;;;5070915;28;20441;-56
2022/03/24 04:03:25;;;;;;;24.63;18.77;;;;;;;;;;5071015;28;20208;-55
2022/03/24 04:05:52;;;;;;;24.30;19.30;;;;;;;;;;5070944;28;20426;-56
2022/03/24 04:08:20;;;;;;;28.73;19.70;;;;;;;;;;5070753;28;20434;-56
2022/03/24 04:10:46;;;;;;;27.47;19.63;;;;;;;;;;5071058;28;20483;-56
2022/03/24 04:13:12;;;;;;;31.93;21.17;;;;;;;;;;5074282;28;20429;-56
2022/03/24 04:15:41;;;;;;;26.70;19.20;;;;;;;;;;5074410;28;20607;-56
2022/03/24 04:18:07;;;;;;;25.87;20.17;;;;;;;;;;5074469;28;20497;-56
2022/03/24 04:20:34;;;;;;;24.57;18.83;;;;;;;;;;5074434;28;21031;-56
2022/03/24 04:23:02;;;;;;;27.30;19.63;;;;;;;;;;5074429;28;20433;-61
2022/03/24 04:25:28;;;;;;;29.17;19.80;;;;;;;;;;5074227;28;20480;-56
2022/03/24 04:27:54;;;;;;;24.87;18.20;;;;;;;;;;5074250;28;20932;-56
2022/03/24 04:30:22;;;;;;;26.13;19.60;;;;;;;;;;5074172;28;20955;-56
2022/03/24 04:32:48;;;;;;;23.60;19.03;;;;;;;;;;5074312;28;20460;-56
2022/03/24 04:35:14;;;;;;;23.07;17.63;;;;;;;;;;5074341;28;20521;-57
2022/03/24 04:37:41;;;;;;;26.93;19.73;;;;;;;;;;5074248;28;20511;-56
2022/03/24 04:40:10;;;;;;;32.10;19.83;;;;;;;;;;5074027;28;20437;-56
2022/03/24 04:42:37;;;;;;;24.47;18.37;;;;;;;;;;5074187;28;20525;-56
2022/03/24 04:45:03;;;;;;;28.37;20.13;;;;;;;;;;5073952;28;20855;-55
2022/03/24 04:47:29;;;;;;;26.77;19.43;;;;;;;;;;5074159;28;20426;-55
2022/03/24 04:49:55;;;;;;;25.17;19.37;;;;;;;;;;5073810;28;20935;-55
2022/03/24 04:52:22;;;;;;;29.50;20.13;;;;;;;;;;5073501;28;20471;-55
2022/03/24 04:54:48;;;;;;;27.50;20.17;;;;;;;;;;5073732;28;20210;-55
2022/03/24 04:57:15;;;;;;;27.47;20.07;;;;;;;;;;5073726;28;20487;-54
2022/03/24 04:59:42;;;;;;;25.20;20.03;;;;;;;;;;5073790;28;20442;-56
2022/03/24 05:02:09;;;;;;;24.77;20.13;;;;;;;;;;5073718;28;20516;-61
2022/03/24 05:04:35;;;;;;;28.30;20.23;;;;;;;;;;5073548;28;20430;-55
2022/03/24 05:07:01;;;;;;;25.53;19.67;;;;;;;;;;5073602;28;20483;-55
2022/03/24 05:09:27;;;;;;;29.57;19.93;;;;;;;;;;5073482;28;20428;-56
2022/03/24 05:11:53;;;;;;;29.10;21.10;;;;;;;;;;5073374;28;20513;-56
2022/03/24 05:14:21;;;;;;;29.27;20.10;;;;;;;;;;5073183;28;20891;-56
2022/03/24 05:16:47;;;;;;;30.70;21.03;;;;;;;;;;5073405;28;20318;-55
2022/03/24 05:19:13;;;;;;;25.87;19.43;;;;;;;;;;5073365;28;20502;-55
2022/03/24 05:21:39;;;;;;;27.43;19.50;;;;;;;;;;5073307;28;20203;-57
2022/03/24 05:24:06;;;;;;;28.00;20.07;;;;;;;;;;5072009;28;20480;-57
2022/03/24 05:26:32;;;;;;;29.93;19.60;;;;;;;;;;5073415;28;20434;-57
2022/03/24 05:28:58;;;;;;;29.03;20.57;;;;;;;;;;5073048;28;20430;-56
2022/03/24 05:31:26;;;;;;;26.93;20.93;;;;;;;;;;5072901;28;20230;-56
2022/03/24 05:33:52;;;;;;;27.20;19.97;;;;;;;;;;5072955;28;20207;-56
2022/03/24 05:36:18;;;;;;;26.20;19.97;;;;;;;;;;5072734;28;20505;-56
2022/03/24 05:38:44;;;;;;;29.67;20.60;;;;;;;;;;5072903;28;20891;-59
2022/03/24 05:41:12;;;;;;;33.37;22.40;;;;;;;;;;5072695;28;20245;-56
2022/03/24 05:43:38;;;;;;;27.23;19.17;;;;;;;;;;5072840;28;20210;-58
2022/03/24 05:46:04;;;;;;;31.00;20.90;;;;;;;;;;5072533;28;20426;-56
2022/03/24 05:48:35;;;;;;;29.40;20.87;;;;;;;;;;5072751;28;20472;-56
2022/03/24 05:51:01;;;;;;;25.70;19.20;;;;;;;;;;5072752;28;20523;-57
2022/03/24 05:53:28;;;;;;;30.70;19.53;;;;;;;;;;5072550;28;20473;-56
2022/03/24 05:55:54;;;;;;;26.37;19.27;;;;;;;;;;5072501;28;20633;-56
2022/03/24 05:58:20;;;;;;;30.37;20.87;;;;;;;;;;5072289;28;20452;-56
2022/03/24 06:00:47;;;;;;;29.57;20.33;;;;;;;;;;5072525;28;20218;-56
2022/03/24 06:03:15;;;;;;;28.80;19.67;;;;;;;;;;5072150;28;20227;-56
2022/03/24 06:05:43;;;;;;;31.37;20.70;;;;;;;;;;5072300;28;20513;-56
2022/03/24 06:08:11;;;;;;;31.57;21.20;;;;;;;;;;5072211;28;20481;-55
2022/03/24 06:10:37;;;;;;;29.47;20.67;;;;;;;;;;5072291;28;20434;-57
2022/03/24 06:13:04;;;;;;;29.80;20.67;;;;;;;;;;5071718;28;20517;-56
2022/03/24 06:15:30;;;;;;;30.23;20.40;;;;;;;;;;5071943;28;20461;-55
2022/03/24 06:17:56;;;;;;;30.53;20.47;;;;;;;;;;5072073;28;20437;-57
2022/03/24 06:20:23;;;;;;;26.37;20.87;;;;;;;;;;5071672;28;20533;-56
2022/03/24 06:22:50;;;;;;;27.50;21.03;;;;;;;;;;5071884;28;20192;-56
2022/03/24 06:25:16;;;;;;;30.00;20.17;;;;;;;;;;5071632;28;20481;-57
2022/03/24 06:27:43;;;;;;;30.37;21.10;;;;;;;;;;5072100;28;20803;-57
2022/03/24 06:30:09;;;;;;;27.60;20.33;;;;;;;;;;5072135;28;20430;-57
2022/03/24 06:32:36;;;;;;;30.43;20.83;;;;;;;;;;5071910;28;20854;-55
2022/03/24 06:35:03;;;;;;;26.17;19.43;;;;;;;;;;5071550;28;20442;-56
2022/03/24 06:37:29;;;;;;;27.87;20.73;;;;;;;;;;5071913;28;20569;-57
2022/03/24 06:39:57;;;;;;;27.27;20.50;;;;;;;;;;5071892;28;20434;-56
2022/03/24 06:42:23;;;;;;;28.43;21.33;;;;;;;;;;5071791;28;20445;-56
2022/03/24 06:44:50;;;;;;;26.07;20.97;;;;;;;;;;5071920;28;20921;-57
2022/03/24 06:47:16;;;;;;;31.10;20.10;;;;;;;;;;5071826;28;20437;-57
2022/03/24 06:49:42;;;;;;;31.87;20.70;;;;;;;;;;5071931;28;20495;-57
2022/03/24 06:52:08;;;;;;;29.67;22.07;;;;;;;;;;5071720;28;20749;-57
2022/03/24 06:54:34;;;;;;;26.03;20.93;;;;;;;;;;5071763;28;20215;-57
2022/03/24 06:57:02;;;;;;;25.93;20.07;;;;;;;;;;5071512;28;20223;-57
2022/03/24 06:59:28;;;;;;;30.00;20.77;;;;;;;;;;5071368;28;20453;-57
2022/03/24 07:01:54;;;;;;;27.20;20.70;;;;;;;;;;5071425;28;20904;-57
2022/03/24 07:04:20;;;;;;;31.70;20.90;;;;;;;;;;5071192;28;20272;-57
2022/03/24 07:06:46;;;;;;;30.83;19.83;;;;;;;;;;5071469;28;20442;-57
2022/03/24 07:09:12;;;;;;;26.97;20.27;;;;;;;;;;5071429;28;20294;-58
2022/03/24 07:11:38;;;;;;;28.20;20.37;;;;;;;;;;5071774;28;20241;-57
2022/03/24 07:14:05;;;;;;;29.03;20.17;;;;;;;;;;5071096;28;20258;-57
2022/03/24 07:16:31;;;;;;;30.30;19.37;;;;;;;;;;5071580;28;20326;-58
2022/03/24 07:18:57;;;;;;;24.27;19.70;;;;;;;;;;5071710;28;20195;-56
2022/03/24 07:21:23;;;;;;;25.90;19.43;;;;;;;;;;5071347;28;20970;-57
2022/03/24 07:23:49;;;;;;;25.13;19.43;;;;;;;;;;5071215;28;20302;-58
2022/03/24 07:26:16;;;;;;;26.47;19.87;;;;;;;;;;5071359;28;20595;-57
2022/03/24 07:28:42;;;;;;;26.47;20.20;;;;;;;;;;5071162;28;20680;-56
2022/03/24 07:31:10;;;;;;;26.93;19.43;;;;;;;;;;5071007;28;20290;-57
2022/03/24 07:33:36;;;;;;;30.97;19.53;;;;;;;;;;5071250;28;20204;-58
2022/03/24 07:36:02;;;;;;;25.17;19.67;;;;;;;;;;5071049;28;20222;-57
2022/03/24 07:38:28;;;;;;;27.17;19.10;;;;;;;;;;5071061;28;20199;-55
2022/03/24 07:40:54;;;;;;;25.43;20.30;;;;;;;;;;5071214;28;20278;-61
2022/03/24 07:43:20;;;;;;;28.77;18.90;;;;;;;;;;5070891;28;20225;-58
2022/03/24 07:45:47;;;;;;;25.43;19.30;;;;;;;;;;5071146;28;20249;-58
2022/03/24 07:48:16;;;;;;;24.50;19.67;;;;;;;;;;5074980;28;20199;-59
2022/03/24 07:50:44;;;;;;;28.67;18.50;;;;;;;;;;5075222;28;20275;-59
2022/03/24 07:53:17;;;;;;;24.97;18.80;;;;;;;;;;5070427;28;20215;-60
2022/03/24 07:55:44;;;;;;;28.83;18.63;;;;;;;;;;5074119;28;20210;-63
2022/03/24 07:58:11;;;;;;;22.03;18.43;;;;;;;;;;5070163;28;20673;-61
2022/03/24 08:00:37;;;;;;;25.87;19.07;;;;;;;;;;5074694;28;20684;-63
2022/03/24 08:03:06;;;;;;;25.47;18.73;;;;;;;;;;5074784;28;20196;-62
2022/03/24 08:05:33;;;;;;;23.47;19.07;;;;;;;;;;5074900;28;20207;-62
2022/03/24 08:07:59;;;;;;;24.93;19.50;;;;;;;;;;5074770;28;20200;-62
2022/03/24 08:10:25;;;;;;;23.93;18.70;;;;;;;;;;5074602;28;20574;-62
2022/03/24 08:12:51;;;;;;;23.63;18.30;;;;;;;;;;5072925;28;20203;-62
2022/03/24 08:15:17;;;;;;;24.80;18.43;;;;;;;;;;5074342;28;20539;-62
2022/03/24 08:17:43;;;;;;;23.70;17.53;;;;;;;;;;5074496;28;20310;-62
2022/03/24 08:20:10;;;;;;;22.87;17.03;;;;;;;;;;5074207;28;20283;-61
2022/03/24 08:22:38;;;;;;;26.20;17.73;;;;;;;;;;5074485;28;20203;-62
2022/03/24 08:25:08;;;;;;;25.60;17.87;;;;;;;;;;5074281;28;20273;-61
2022/03/24 08:27:34;;;;;;;27.90;18.17;;;;;;;;;;5074437;28;20206;-61
2022/03/24 08:30:00;;;;;;;22.40;17.20;;;;;;;;;;5074384;28;20225;-60
2022/03/24 08:32:26;;;;;;;20.53;17.30;;;;;;;;;;5074224;28;20218;-61
2022/03/24 08:34:52;;;;;;;20.80;16.80;;;;;;;;;;5074323;28;20618;-61
2022/03/24 08:37:18;;;;;;;26.77;19.00;;;;;;;;;;5073858;28;20278;-62
2022/03/24 08:39:46;;;;;;;22.20;17.30;;;;;;;;;;5074295;28;20195;-61
2022/03/24 08:42:12;;;;;;;26.07;18.97;;;;;;;;;;5073995;28;20210;-61
2022/03/24 08:44:38;;;;;;;23.30;18.80;;;;;;;;;;5074175;28;20274;-61
2022/03/24 08:47:05;;;;;;;24.63;18.57;;;;;;;;;;5074072;28;20245;-60
2022/03/24 08:49:31;;;;;;;24.83;17.30;;;;;;;;;;5073732;28;20286;-61
2022/03/24 08:51:57;;;;;;;24.67;17.30;;;;;;;;;;5073808;28;20195;-61
2022/03/24 08:54:24;;;;;;;22.97;18.83;;;;;;;;;;5073753;28;20666;-61
2022/03/24 08:56:51;;;;;;;21.33;18.10;;;;;;;;;;5073717;28;20211;-62
2022/03/24 08:59:18;;;;;;;19.87;17.27;;;;;;;;;;5073469;28;20696;-61
2022/03/24 09:01:44;;;;;;;20.00;17.77;;;;;;;;;;5073595;28;20215;-61
2022/03/24 09:04:10;;;;;;;27.10;18.07;;;;;;;;;;5073605;28;20209;-62
2022/03/24 09:06:36;;;;;;;21.80;17.00;;;;;;;;;;5073483;28;20290;-62
2022/03/24 09:09:02;;;;;;;20.10;16.27;;;;;;;;;;5073645;28;20192;-63
2022/03/24 09:11:28;;;;;;;24.20;16.93;;;;;;;;;;5073245;28;20199;-62
2022/03/24 09:13:56;;;;;;;20.30;16.50;;;;;;;;;;5073546;28;20203;-63
2022/03/24 09:16:22;;;;;;;23.50;17.87;;;;;;;;;;5073170;28;20709;-63
2022/03/24 09:18:48;;;;;;;21.33;16.83;;;;;;;;;;5073385;28;20663;-65
2022/03/24 09:21:14;;;;;;;20.13;17.43;;;;;;;;;;5073240;28;20361;-62
2022/03/24 09:23:41;;;;;;;21.47;16.30;;;;;;;;;;5070249;28;20216;-63
2022/03/24 09:26:08;;;;;;;20.63;17.80;;;;;;;;;;5073523;28;20276;-63
2022/03/24 09:28:34;;;;;;;21.30;17.40;;;;;;;;;;5072951;28;20255;-63
2022/03/24 09:31:01;;;;;;;22.17;17.37;;;;;;;;;;5073548;28;20201;-62
2022/03/24 09:33:27;;;;;;;24.80;17.80;;;;;;;;;;5071296;28;20201;-63
2022/03/24 09:35:53;;;;;;;21.37;17.50;;;;;;;;;;5073274;28;20603;-63
2022/03/24 09:38:20;;;;;;;24.50;18.17;;;;;;;;;;5073226;28;20213;-64
2022/03/24 09:40:46;;;;;;;21.57;16.90;;;;;;;;;;5073306;28;20248;-64
2022/03/24 09:43:13;;;;;;;22.63;18.03;;;;;;;;;;5071049;28;20246;-64
2022/03/24 09:45:40;;;;;;;24.30;16.77;;;;;;;;;;5073059;28;20291;-59
2022/03/24 09:48:10;;;;;;;19.90;17.73;;;;;;;;;;5072880;28;20250;-60
2022/03/24 09:50:36;;;;;;;20.63;17.07;;;;;;;;;;5072646;28;20204;-59
2022/03/24 09:53:02;;;;;;;23.73;17.93;;;;;;;;;;5072972;28;20207;-60
2022/03/24 09:55:32;;;;;;;23.07;17.10;;;;;;;;;;5072584;28;20218;-60
2022/03/24 09:57:59;;;;;;;21.70;18.17;;;;;;;;;;5072586;28;20235;-61
2022/03/24 10:00:25;;;;;;;22.93;17.20;;;;;;;;;;5072482;28;20362;-59
2022/03/24 10:03:08;;;;;;;21.47;16.83;;;;;;;;;;5072764;28;20447;-60
2022/03/24 10:05:34;;;;;;;23.43;17.40;;;;;;;;;;5072493;28;20289;-60
2022/03/24 10:08:04;;;;;;;23.70;17.50;;;;;;;;;;5072673;28;20210;-59
2022/03/24 10:10:34;;;;;;;22.97;17.77;;;;;;;;;;5072014;28;20203;-60
2022/03/24 10:13:00;;;;;;;23.27;17.07;;;;;;;;;;5072500;28;20588;-59
2022/03/24 10:15:26;;;;;;;20.23;16.73;;;;;;;;;;5072110;28;20625;-59
2022/03/24 10:17:53;;;;;;;20.27;17.07;;;;;;;;;;5071962;28;20266;-59
2022/03/24 10:20:21;;;;;;;18.73;16.53;;;;;;;;;;5071943;28;20202;-60
2022/03/24 10:22:54;;;;;;;20.83;16.13;;;;;;;;;;5072014;28;20205;-59
2022/03/24 10:25:21;;;;;;;23.83;17.17;;;;;;;;;;5071648;28;20243;-60
2022/03/24 10:27:50;;;;;;;24.53;17.63;;;;;;;;;;5071948;28;20199;-60
2022/03/24 10:30:16;;;;;;;25.10;16.40;;;;;;;;;;5070172;28;20678;-60
2022/03/24 10:32:54;;;;;;;23.47;17.47;;;;;;;;;;5070990;28;20227;-60
2022/03/24 10:35:22;;;;;;;20.17;16.40;;;;;;;;;;5071726;28;20666;-60
2022/03/24 10:37:48;;;;;;;21.37;16.93;;;;;;;;;;5071852;28;20316;-60
2022/03/24 10:40:14;;;;;;;18.47;16.30;;;;;;;;;;5071834;28;20227;-60
2022/03/24 10:42:41;;;;;;;21.03;16.47;;;;;;;;;;5071898;28;20197;-59
2022/03/24 10:45:12;;;;;;;25.07;17.00;;;;;;;;;;5071705;28;20195;-60
2022/03/24 10:47:39;;;;;;;23.50;18.23;;;;;;;;;;5071833;28;20195;-59
2022/03/24 10:50:28;;;;;;;24.23;17.97;;;;;;;;;;5071733;28;20205;-60
2022/03/24 10:52:54;;;;;;;26.77;19.23;;;;;;;;;;5071836;28;20205;-59
2022/03/24 10:55:27;;;;;;;29.23;18.87;;;;;;;;;;5071237;28;20200;-59
2022/03/24 10:57:54;;;;;;;27.50;18.20;;;;;;;;;;5071458;28;20749;-59
2022/03/24 11:00:20;;;;;;;21.57;18.47;;;;;;;;;;5071192;28;20233;-58
2022/03/24 11:02:46;;;;;;;23.73;18.77;;;;;;;;;;5071658;28;20200;-59
2022/03/24 11:05:13;;;;;;;21.23;17.63;;;;;;;;;;5071599;28;20216;-60
2022/03/24 11:07:40;;;;;;;23.33;17.50;;;;;;;;;;5071432;28;20193;-57
2022/03/24 11:10:12;;;;;;;22.83;18.07;;;;;;;;;;5071367;28;20663;-58
2022/03/24 11:12:39;;;;;;;24.43;17.97;;;;;;;;;;5071596;28;20224;-59
2022/03/24 11:15:07;;;;;;;25.07;18.63;;;;;;;;;;5071510;28;20212;-58
2022/03/24 11:17:33;;;;;;;24.17;19.97;;;;;;;;;;5071549;28;20227;-59
2022/03/24 11:20:06;;;;;;;24.43;19.40;;;;;;;;;;5071484;28;20668;-59
2022/03/24 11:22:36;;;;;;;22.20;19.40;;;;;;;;;;5074252;28;20278;-58
2022/03/24 11:25:04;;;;;;;19.43;17.27;;;;;;;;;;5075440;28;20241;-59
2022/03/24 11:27:30;;;;;;;24.87;18.73;;;;;;;;;;5075610;28;20202;-59
2022/03/24 11:29:57;;;;;;;20.17;17.97;;;;;;;;;;5075376;28;20558;-59
2022/03/24 11:32:23;;;;;;;21.83;17.60;;;;;;;;;;5075516;28;20200;-59
2022/03/24 11:34:49;;;;;;;20.13;15.67;;;;;;;;;;5075544;28;20373;-59
2022/03/24 11:37:16;;;;;;;20.60;18.07;;;;;;;;;;5075403;28;20317;-59
2022/03/24 11:40:00;;;;;;;22.07;17.30;;;;;;;;;;5075475;28;20206;-59
2022/03/24 11:42:28;;;;;;;24.50;18.67;;;;;;;;;;5075521;28;20197;-59
2022/03/24 11:44:59;;;;;;;20.93;18.07;;;;;;;;;;5075244;28;20201;-59
2022/03/24 11:47:26;;;;;;;21.43;18.30;;;;;;;;;;5075282;28;20231;-59
2022/03/24 11:50:05;;;;;;;21.40;15.93;;;;;;;;;;5075117;28;20208;-59
2022/03/24 11:52:31;;;;;;;18.27;13.33;;;;;;;;;;5075071;28;20188;-60
2022/03/24 11:54:57;;;;;;;19.97;12.40;;;;;;;;;;5073490;28;20725;-60
2022/03/24 11:57:28;;;;;;;24.43;16.33;;;;;;;;;;5074974;28;20235;-59
2022/03/24 12:00:13;;;;;;;20.40;15.77;;;;;;;;;;5075059;28;20222;-60
2022/03/24 12:02:40;;;;;;;21.53;15.10;;;;;;;;;;5074974;28;20193;-59
2022/03/24 12:05:06;;;;;;;19.43;15.27;;;;;;;;;;5074654;28;20908;-60
2022/03/24 12:07:32;;;;;;;19.27;14.70;;;;;;;;;;5074813;28;20198;-59
2022/03/24 12:10:00;;;;;;;19.37;14.63;;;;;;;;;;5074818;28;20224;-59
2022/03/24 12:12:26;;;;;;;23.93;16.40;;;;;;;;;;5074711;28;20297;-59
2022/03/24 12:14:54;;;;;;;18.00;15.37;;;;;;;;;;5074617;28;20237;-60
2022/03/24 12:17:22;;;;;;;24.03;16.13;;;;;;;;;;5074578;28;20633;-59
2022/03/24 12:19:49;;;;;;;21.07;14.80;;;;;;;;;;5074479;28;20609;-59
2022/03/24 12:22:30;;;;;;;18.77;14.87;;;;;;;;;;5074602;28;20206;-60
2022/03/24 12:25:18;;;;;;;22.80;15.33;;;;;;;;;;5074589;28;20333;-59
2022/03/24 12:27:55;;;;;;;18.40;13.53;;;;;;;;;;5074359;28;20199;-59
2022/03/24 12:30:24;;;;;;;19.87;12.80;;;;;;;;;;5074277;28;20872;-59
2022/03/24 12:33:01;;;;;;;15.50;13.50;;;;;;;;;;5073828;28;20225;-59
2022/03/24 12:35:41;;;;;;;25.33;16.50;;;;;;;;;;5073902;28;20198;-59
2022/03/24 12:38:20;;;;;;;19.40;15.73;;;;;;;;;;5073814;28;20756;-59
2022/03/24 12:41:01;;;;;;;18.07;16.13;;;;;;;;;;5074164;28;20207;-59
2022/03/24 12:43:27;;;;;;;23.70;17.67;;;;;;;;;;5057016;28;20212;-58
2022/03/24 12:46:14;;;;;;;19.50;16.93;;;;;;;;;;5074313;28;20197;-58
2022/03/24 12:48:40;;;;;;;20.53;15.17;;;;;;;;;;5073957;28;20715;-59
2022/03/24 12:51:16;;;;;;;17.47;13.80;;;;;;;;;;5073911;28;20194;-59
2022/03/24 12:53:55;;;;;;;24.43;15.60;;;;;;;;;;5074123;28;20205;-59
2022/03/24 12:56:23;;;;;;;17.37;14.67;;;;;;;;;;5073838;28;20232;-59
2022/03/24 12:58:52;;;;;;;19.13;13.93;;;;;;;;;;5073935;28;20203;-59
2022/03/24 13:01:20;;;;;;;19.37;14.93;;;;;;;;;;5073770;28;20215;-59
2022/03/24 13:03:53;;;;;;;19.37;14.73;;;;;;;;;;5073844;28;20202;-59
2022/03/24 13:06:20;;;;;;;18.73;13.57;;;;;;;;;;5073569;28;20231;-59
2022/03/24 13:09:08;;;;;;;19.50;14.77;;;;;;;;;;5073840;28;20203;-59
2022/03/24 13:11:47;;;;;;;20.03;14.27;;;;;;;;;;5073420;28;20303;-59
2022/03/24 13:14:13;;;;;;;21.80;15.40;;;;;;;;;;5073517;28;20716;-59
2022/03/24 13:16:40;;;;;;;19.57;14.00;;;;;;;;;;5073428;28;20698;-58
2022/03/24 13:19:06;;;;;;;17.77;15.70;;;;;;;;;;5073219;28;20200;-59
2022/03/24 13:21:32;;;;;;;21.43;14.40;;;;;;;;;;5073294;28;20226;-58
2022/03/24 13:23:58;;;;;;;17.03;15.10;;;;;;;;;;5072972;28;20271;-58
2022/03/24 13:26:24;;;;;;;20.10;15.17;;;;;;;;;;5072955;28;20203;-60
2022/03/24 13:28:55;;;;;;;22.40;14.53;;;;;;;;;;5073062;28;20534;-60
2022/03/24 13:31:28;;;;;;;17.80;13.27;;;;;;;;;;5072927;28;20192;-58
2022/03/24 13:33:56;;;;;;;17.00;14.20;;;;;;;;;;5073026;28;20202;-58
2022/03/24 13:36:22;;;;;;;20.30;14.97;;;;;;;;;;5072686;28;20209;-60
2022/03/24 13:38:48;;;;;;;23.67;16.33;;;;;;;;;;5072651;28;20197;-58
2022/03/24 13:41:14;;;;;;;21.67;15.97;;;;;;;;;;5072496;28;20544;-57
2022/03/24 13:43:40;;;;;;;18.53;14.93;;;;;;;;;;5071986;28;20213;-60
2022/03/24 13:46:06;;;;;;;18.77;15.50;;;;;;;;;;5072237;28;20672;-57
2022/03/24 13:48:32;;;;;;;22.17;16.13;;;;;;;;;;5072555;28;20213;-60
2022/03/24 13:51:01;;;;;;;22.07;16.40;;;;;;;;;;5072883;28;20196;-60
2022/03/24 13:53:28;;;;;;;19.73;14.90;;;;;;;;;;5072626;28;20681;-58
2022/03/24 13:56:04;;;;;;;22.37;15.60;;;;;;;;;;5072914;28;20200;-60
2022/03/24 13:58:30;;;;;;;21.97;16.63;;;;;;;;;;5072589;28;20247;-57
2022/03/24 14:01:01;;;;;;;19.17;14.27;;;;;;;;;;5072487;28;20196;-57
2022/03/24 14:03:27;;;;;;;20.23;14.70;;;;;;;;;;5072579;28;20200;-58
2022/03/24 14:05:54;;;;;;;16.97;14.23;;;;;;;;;;5072521;28;20204;-58
2022/03/24 14:08:31;;;;;;;16.57;13.30;;;;;;;;;;5072149;28;20654;-58
2022/03/24 14:11:09;;;;;;;16.67;14.40;;;;;;;;;;5072465;28;20203;-58
2022/03/24 14:13:36;;;;;;;17.93;14.27;;;;;;;;;;5072082;28;20204;-59
2022/03/24 14:16:08;;;;;;;21.23;15.20;;;;;;;;;;5072049;28;20246;-59
2022/03/24 14:18:34;;;;;;;18.90;14.83;;;;;;;;;;5071728;28;20281;-59